Time;durP1;ratioP1;P1;durP2;ratioP2;P2;SDS_P1;SDS_P2;PMS_P1;PMS_P2;Temp;Humidity;BMP_temperature;BMP_pressure;BME280_temperature;BME280_humidity;BME280_pressure;Samples;Min_cycle;Max_cycle;Signal;HPM_P1;HPM_P2
2022/09/13 00:01:23;;;;;;;6.60;4.50;;;;;;;9.29;76.28;100019.56;130349;1267;108989;-77
2022/09/13 00:04:28;;;;;;;6.60;3.90;;;;;;;9.30;76.21;100018.95;130425;1268;108736;-76
2022/09/13 00:07:34;;;;;;;7.60;3.70;;;;;;;9.28;76.04;100015.63;130410;1268;108726;-77
2022/09/13 00:10:41;;;;;;;4.70;3.80;;;;;;;9.24;75.97;100017.59;130528;1268;108125;-77
2022/09/13 00:13:47;;;;;;;4.60;3.60;;;;;;;9.14;75.99;100022.27;130407;1267;108356;-77
2022/09/13 00:16:52;;;;;;;8.50;3.80;;;;;;;9.10;76.05;100023.21;130338;1267;108594;-77
2022/09/13 00:19:58;;;;;;;5.00;3.90;;;;;;;9.05;76.14;100020.47;130374;1268;108698;-77
2022/09/13 00:23:04;;;;;;;5.10;3.80;;;;;;;9.02;76.03;100019.53;130411;1267;108780;-76
2022/09/13 00:26:11;;;;;;;4.30;3.30;;;;;;;8.98;76.12;100022.75;130391;1267;108809;-77
2022/09/13 00:29:17;;;;;;;6.00;3.40;;;;;;;8.94;75.90;100020.37;130423;1268;108766;-76
2022/09/13 00:32:22;;;;;;;6.80;3.60;;;;;;;8.91;75.87;100014.29;130358;1267;108628;-77
2022/09/13 00:35:27;;;;;;;5.90;3.70;;;;;;;8.91;75.99;100017.25;130367;1267;108588;-75
2022/09/13 00:38:34;;;;;;;7.60;3.80;;;;;;;8.92;75.92;100017.55;130399;1267;108691;-76
2022/09/13 00:41:40;;;;;;;5.00;3.40;;;;;;;8.89;75.88;100018.02;130372;1268;108878;-76
2022/09/13 00:44:56;;;;;;;8.50;3.90;;;;;;;8.84;75.63;100018.09;130380;1268;108766;-76
2022/09/13 00:48:06;;;;;;;7.40;3.60;;;;;;;8.80;75.83;100015.67;130315;1268;108550;-76
2022/09/13 00:51:12;;;;;;;5.20;3.70;;;;;;;8.74;75.84;100017.27;130233;1267;108863;-76
2022/09/13 00:54:20;;;;;;;5.90;3.80;;;;;;;8.68;75.65;100010.77;130345;1268;109195;-77
2022/09/13 00:57:26;;;;;;;5.50;4.00;;;;;;;8.63;75.72;100013.31;130438;1268;108703;-77
2022/09/13 01:00:32;;;;;;;6.00;3.80;;;;;;;8.59;75.74;100013.05;129238;1268;1583536;-77
2022/09/13 01:03:39;;;;;;;4.60;3.80;;;;;;;8.54;75.83;100007.16;130431;1268;108690;-77
2022/09/13 01:06:45;;;;;;;5.50;3.40;;;;;;;8.48;75.71;100003.44;130369;1268;108668;-77
2022/09/13 01:09:53;;;;;;;4.20;3.40;;;;;;;8.44;75.91;100008.11;130351;1267;108685;-76
2022/09/13 01:13:05;;;;;;;7.10;3.10;;;;;;;8.43;75.83;100006.54;130454;1268;107584;-77
2022/09/13 01:16:10;;;;;;;5.90;3.60;;;;;;;8.42;75.45;100004.52;130350;1267;107047;-77
2022/09/13 01:19:16;;;;;;;7.40;3.80;;;;;;;8.40;75.78;100002.88;130466;1268;108559;-77
2022/09/13 01:22:53;;;;;;;5.40;3.80;;;;;;;8.42;75.72;100000.84;130373;1268;108499;-76
2022/09/13 01:26:27;;;;;;;7.10;4.00;;;;;;;8.37;75.66;99997.87;130367;1267;109056;-75
2022/09/13 01:30:04;;;;;;;4.40;3.50;;;;;;;8.35;75.91;99994.22;130392;1268;107407;-77
2022/09/13 01:33:34;;;;;;;5.50;3.70;;;;;;;8.31;75.59;99996.38;130292;1268;108570;-77
2022/09/13 01:36:51;;;;;;;6.30;3.80;;;;;;;8.24;75.67;99990.75;130496;1268;108613;-77
2022/09/13 01:40:08;;;;;;;5.00;3.60;;;;;;;8.19;75.58;99989.30;130432;1268;108866;-78
2022/09/13 01:43:25;;;;;;;6.60;3.60;;;;;;;8.11;75.65;99987.04;130414;1267;108901;-77
2022/09/13 01:46:38;;;;;;;5.00;3.40;;;;;;;8.01;75.48;99982.25;130384;1268;108149;-77
2022/09/13 01:49:51;;;;;;;5.10;3.20;;;;;;;7.98;75.57;99977.42;130356;1267;108840;-78
2022/09/13 01:53:00;;;;;;;7.80;3.70;;;;;;;7.96;75.59;99972.30;130415;1268;108808;-77
2022/09/13 01:56:12;;;;;;;5.90;3.60;;;;;;;7.97;75.49;99968.02;130385;1268;108753;-77
2022/09/13 01:59:23;;;;;;;4.50;3.20;;;;;;;7.97;75.47;99961.95;130339;1266;108572;-77
2022/09/13 02:02:35;;;;;;;5.50;3.70;;;;;;;7.96;75.43;99960.23;130361;1268;108861;-78
2022/09/13 02:05:46;;;;;;;7.10;3.70;;;;;;;7.93;75.13;99955.78;130510;1268;108913;-73
2022/09/13 02:08:57;;;;;;;4.50;3.60;;;;;;;7.90;75.29;99954.34;130429;1268;107655;-72
2022/09/13 02:12:09;;;;;;;4.40;3.60;;;;;;;7.85;75.27;99947.99;130405;1268;108694;-73
2022/09/13 02:15:20;;;;;;;4.50;3.50;;;;;;;7.82;75.28;99946.52;130311;1268;108615;-72
2022/09/13 02:18:32;;;;;;;4.80;3.40;;;;;;;7.76;75.24;99946.04;130431;1267;108558;-73
2022/09/13 02:21:43;;;;;;;6.50;3.90;;;;;;;7.72;75.40;99952.07;130609;1268;108684;-72
2022/09/13 02:24:54;;;;;;;4.40;3.60;;;;;;;7.69;75.46;99947.90;131925;1267;108709;-71
2022/09/13 02:28:03;;;;;;;4.50;3.70;;;;;;;7.66;75.39;99948.48;130353;1267;108946;-71
2022/09/13 02:31:11;;;;;;;6.30;3.70;;;;;;;7.60;75.36;99948.54;130339;1265;108535;-72
2022/09/13 02:34:22;;;;;;;4.90;3.30;;;;;;;7.55;75.24;99945.84;130438;1267;108995;-72
2022/09/13 02:37:32;;;;;;;4.60;3.30;;;;;;;7.52;75.63;99942.44;130387;1268;108756;-71
2022/09/13 02:40:43;;;;;;;5.70;3.60;;;;;;;7.53;75.31;99943.70;130437;1267;108811;-72
2022/09/13 02:43:53;;;;;;;6.00;3.70;;;;;;;7.54;75.29;99941.19;130381;1268;108034;-72
2022/09/13 02:47:11;;;;;;;4.80;3.30;;;;;;;7.49;75.09;99939.96;130421;1267;108798;-71
2022/09/13 02:50:32;;;;;;;4.00;3.30;;;;;;;7.48;75.24;99944.36;130464;1267;108977;-72
2022/09/13 02:53:45;;;;;;;4.50;3.70;;;;;;;7.44;75.09;99939.21;130363;1268;108675;-71
2022/09/13 02:56:55;;;;;;;9.00;4.30;;;;;;;7.37;74.85;99934.17;130327;1267;108714;-71
2022/09/13 03:00:00;;;;;;;4.70;3.60;;;;;;;7.31;75.03;99928.55;130395;1268;108628;-71
2022/09/13 03:03:09;;;;;;;4.70;3.80;;;;;;;7.24;74.76;99921.63;130402;1268;108819;-74
2022/09/13 03:06:21;;;;;;;3.70;3.20;;;;;;;7.16;74.74;99919.98;130472;1267;108814;-71
2022/09/13 03:09:27;;;;;;;5.10;3.30;;;;;;;7.07;74.65;99923.08;130401;1267;108751;-72
2022/09/13 03:13:00;;;;;;;6.50;3.80;;;;;;;7.03;74.77;99919.23;130418;1268;108884;-72
2022/09/13 03:16:16;;;;;;;7.10;3.60;;;;;;;6.99;75.12;99919.40;130129;1267;108974;-76
2022/09/13 03:19:40;;;;;;;7.10;3.20;;;;;;;6.93;75.07;99922.08;130419;1267;108734;-74
2022/09/13 03:23:09;;;;;;;4.90;3.30;;;;;;;6.88;75.11;99917.53;130469;1267;108581;-74
2022/09/13 03:26:30;;;;;;;5.30;3.50;;;;;;;6.90;74.82;99912.44;130444;1267;108799;-74
2022/09/13 03:29:45;;;;;;;6.70;4.10;;;;;;;6.93;75.02;99908.48;130360;1267;108796;-73
2022/09/13 03:32:58;;;;;;;4.30;3.40;;;;;;;6.94;74.80;99905.85;130393;1267;108714;-74
2022/09/13 03:36:12;;;;;;;4.50;3.60;;;;;;;6.95;74.68;99901.56;130503;1267;108573;-73
2022/09/13 03:39:29;;;;;;;6.50;4.00;;;;;;;6.93;74.52;99899.42;130348;1268;108683;-73
2022/09/13 03:42:40;;;;;;;5.50;3.30;;;;;;;6.91;74.69;99901.94;130211;1267;108683;-73
2022/09/13 03:45:54;;;;;;;4.40;3.30;;;;;;;6.88;74.56;99897.77;130287;1267;106871;-76
2022/09/13 03:49:04;;;;;;;5.10;3.30;;;;;;;6.86;74.71;99895.13;130393;1267;108670;-75
2022/09/13 03:52:11;;;;;;;4.50;3.40;;;;;;;6.80;74.57;99894.04;130382;1268;108914;-75
2022/09/13 03:55:20;;;;;;;5.90;4.10;;;;;;;6.74;74.72;99894.78;130441;1268;108738;-76
2022/09/13 03:58:27;;;;;;;8.70;3.90;;;;;;;6.69;74.32;99896.10;130329;1268;108576;-74
2022/09/13 04:01:33;;;;;;;5.10;3.80;;;;;;;6.66;74.49;99897.64;130397;1267;108621;-75
2022/09/13 04:04:39;;;;;;;5.30;4.10;;;;;;;6.61;74.32;99894.54;130453;1265;108718;-75
2022/09/13 04:07:44;;;;;;;5.30;3.70;;;;;;;6.57;74.20;99890.33;130368;1268;108856;-75
2022/09/13 04:10:51;;;;;;;4.70;3.90;;;;;;;6.52;74.16;99894.23;130372;1267;108059;-75
2022/09/13 04:13:57;;;;;;;4.50;3.50;;;;;;;6.47;74.30;99890.42;130398;1267;108838;-75
2022/09/13 04:17:03;;;;;;;5.40;3.50;;;;;;;6.46;74.33;99883.28;130401;1268;108461;-75
2022/09/13 04:20:10;;;;;;;6.20;4.10;;;;;;;6.47;74.49;99881.26;130487;1268;109467;-75
2022/09/13 04:23:15;;;;;;;5.60;3.70;;;;;;;6.51;74.43;99880.73;130402;1268;108555;-75
2022/09/13 04:26:21;;;;;;;5.40;3.50;;;;;;;6.55;74.26;99879.64;130407;1267;109092;-75
2022/09/13 04:29:27;;;;;;;4.80;3.60;;;;;;;6.58;74.24;99878.66;130422;1267;108691;-75
2022/09/13 04:32:33;;;;;;;6.30;4.10;;;;;;;6.62;74.14;99881.17;130455;1267;108620;-75
2022/09/13 04:35:39;;;;;;;5.70;3.60;;;;;;;6.63;74.33;99877.48;130402;1267;108829;-75
2022/09/13 04:38:46;;;;;;;4.30;3.30;;;;;;;6.66;74.62;99878.69;130440;1268;108813;-75
2022/09/13 04:41:53;;;;;;;5.60;3.70;;;;;;;6.66;74.20;99880.79;130800;1267;108826;-76
2022/09/13 04:44:59;;;;;;;7.00;3.80;;;;;;;6.69;74.41;99872.75;130405;1267;108640;-75
2022/09/13 04:48:04;;;;;;;5.10;3.80;;;;;;;6.79;74.39;99871.40;130479;1267;108775;-75
2022/09/13 04:51:11;;;;;;;4.90;3.60;;;;;;;6.92;74.43;99869.14;130499;1267;108844;-76
2022/09/13 04:54:17;;;;;;;4.20;3.50;;;;;;;7.05;74.63;99866.55;130513;1267;108636;-76
2022/09/13 04:57:22;;;;;;;4.80;3.30;;;;;;;7.19;74.56;99867.41;130541;1267;108624;-76
2022/09/13 05:00:30;;;;;;;6.50;3.60;;;;;;;7.31;74.31;99861.30;130354;1267;107552;-76
2022/09/13 05:03:37;;;;;;;5.80;3.60;;;;;;;7.40;74.51;99860.96;131011;1267;108958;-76
2022/09/13 05:06:42;;;;;;;5.50;3.90;;;;;;;7.57;74.87;99860.81;130453;1267;108717;-76
2022/09/13 05:09:48;;;;;;;5.50;3.60;;;;;;;7.80;74.58;99859.73;130426;1267;108789;-76
2022/09/13 05:12:54;;;;;;;6.50;4.20;;;;;;;7.95;74.51;99860.09;130406;1267;108737;-73
2022/09/13 05:16:03;;;;;;;5.00;3.60;;;;;;;8.07;74.43;99858.06;130406;1268;108871;-74
2022/09/13 05:19:09;;;;;;;6.60;3.80;;;;;;;8.16;74.46;99853.84;130413;1267;108656;-76
2022/09/13 05:22:14;;;;;;;5.00;4.00;;;;;;;8.23;74.63;99854.25;130366;1268;108849;-74
2022/09/13 05:25:20;;;;;;;5.80;3.40;;;;;;;8.29;74.77;99857.20;130429;1267;108873;-73
2022/09/13 05:28:27;;;;;;;8.70;4.90;;;;;;;8.36;74.88;99858.65;130448;1268;108801;-73
2022/09/13 05:31:34;;;;;;;9.90;6.80;;;;;;;8.43;75.15;99862.79;130477;1268;108889;-72
2022/09/13 05:34:40;;;;;;;5.80;3.70;;;;;;;8.51;75.19;99862.02;130382;1267;108848;-74
2022/09/13 05:37:45;;;;;;;6.30;4.20;;;;;;;8.59;75.61;99860.37;130479;1268;108749;-74
2022/09/13 05:40:56;;;;;;;7.10;4.80;;;;;;;8.69;75.56;99854.64;130444;1268;108712;-75
2022/09/13 05:44:01;;;;;;;7.50;5.00;;;;;;;8.79;75.92;99854.35;130405;1268;108812;-73
2022/09/13 05:47:07;;;;;;;11.30;6.90;;;;;;;8.91;76.12;99857.02;130469;1268;107644;-73
2022/09/13 05:50:12;;;;;;;11.80;7.80;;;;;;;9.04;76.30;99852.05;130521;1267;107702;-73
2022/09/13 05:53:18;;;;;;;13.40;8.60;;;;;;;9.13;76.42;99851.36;130497;1267;108861;-73
2022/09/13 05:56:25;;;;;;;12.40;8.90;;;;;;;9.18;76.93;99843.95;130453;1267;108832;-74
2022/09/13 05:59:31;;;;;;;8.20;5.30;;;;;;;9.26;77.22;99846.31;130443;1268;108778;-73
2022/09/13 06:02:37;;;;;;;6.30;4.90;;;;;;;9.36;77.36;99845.62;130381;1268;108690;-73
2022/09/13 06:05:42;;;;;;;5.90;4.50;;;;;;;9.47;77.97;99848.30;130445;1268;108621;-73
2022/09/13 06:08:48;;;;;;;6.10;5.00;;;;;;;9.61;78.39;99845.39;130428;1268;108782;-74
2022/09/13 06:11:53;;;;;;;8.80;5.50;;;;;;;9.83;78.85;99845.81;130506;1267;108683;-75
2022/09/13 06:14:58;;;;;;;8.30;5.20;;;;;;;10.06;79.29;99843.30;130403;1267;108948;-74
2022/09/13 06:18:04;;;;;;;8.60;5.50;;;;;;;10.27;79.30;99840.20;130434;1268;108618;-75
2022/09/13 06:21:16;;;;;;;9.60;5.50;;;;;;;10.46;79.45;99837.91;130458;1268;108758;-74
2022/09/13 06:24:22;;;;;;;7.50;4.80;;;;;;;10.65;79.86;99836.55;130436;1267;108870;-75
2022/09/13 06:27:28;;;;;;;6.90;5.50;;;;;;;10.85;79.97;99833.58;130425;1265;108752;-75
2022/09/13 06:30:34;;;;;;;6.50;4.80;;;;;;;11.05;79.99;99828.14;131005;1267;108976;-75
2022/09/13 06:33:41;;;;;;;7.50;5.50;;;;;;;11.24;80.05;99828.95;130472;1267;108614;-75
2022/09/13 06:36:47;;;;;;;5.60;4.90;;;;;;;11.42;80.03;99826.16;130492;1267;108865;-74
2022/09/13 06:39:52;;;;;;;6.40;4.90;;;;;;;11.57;80.38;99830.75;130404;1267;108635;-74
2022/09/13 06:42:58;;;;;;;7.30;4.10;;;;;;;11.69;80.36;99828.18;130475;1268;108696;-75
2022/09/13 06:46:05;;;;;;;6.60;4.00;;;;;;;11.81;80.33;99830.72;130352;1267;107702;-75
2022/09/13 06:49:11;;;;;;;9.20;4.60;;;;;;;11.97;80.19;99824.73;130328;1268;108687;-75
2022/09/13 06:52:16;;;;;;;5.10;4.20;;;;;;;12.17;80.48;99825.60;130380;1268;108778;-73
2022/09/13 06:55:22;;;;;;;5.40;4.00;;;;;;;12.36;80.25;99819.04;130422;1267;108677;-73
2022/09/13 06:58:28;;;;;;;9.10;7.30;;;;;;;12.51;80.16;99816.24;130430;1267;108848;-73
2022/09/13 07:01:35;;;;;;;6.50;4.90;;;;;;;12.66;80.14;99810.92;130462;1267;107723;-74
2022/09/13 07:04:40;;;;;;;5.40;4.20;;;;;;;12.83;80.02;99811.43;130354;1268;108618;-74
2022/09/13 07:07:46;;;;;;;5.80;3.80;;;;;;;13.00;80.09;99815.23;130429;1267;107662;-73
2022/09/13 07:10:51;;;;;;;4.30;3.30;;;;;;;13.18;80.00;99812.38;130489;1268;109059;-73
2022/09/13 07:13:59;;;;;;;6.50;3.80;;;;;;;13.41;80.05;99814.20;130456;1267;108600;-74
2022/09/13 07:17:04;;;;;;;3.70;3.40;;;;;;;13.66;80.08;99807.61;130494;1268;109129;-74
2022/09/13 07:20:10;;;;;;;5.90;4.60;;;;;;;13.89;79.59;99803.25;130427;1268;107966;-74
2022/09/13 07:23:15;;;;;;;6.70;3.90;;;;;;;14.08;79.55;99799.11;130486;1267;109205;-74
2022/09/13 07:26:22;;;;;;;4.60;3.70;;;;;;;14.23;79.19;99794.48;130440;1266;108751;-75
2022/09/13 07:29:27;;;;;;;6.30;4.50;;;;;;;14.35;79.24;99793.86;130429;1268;108904;-74
2022/09/13 07:32:34;;;;;;;6.70;5.10;;;;;;;14.43;78.96;99797.54;130428;1267;108687;-75
2022/09/13 07:35:39;;;;;;;5.30;4.00;;;;;;;14.51;79.02;99794.02;130407;1268;108824;-75
2022/09/13 07:38:45;;;;;;;4.40;3.50;;;;;;;14.64;79.10;99797.38;130545;1268;108811;-74
2022/09/13 07:41:52;;;;;;;5.30;3.20;;;;;;;14.77;78.97;99796.92;130481;1267;108873;-75
2022/09/13 07:44:57;;;;;;;6.00;3.60;;;;;;;14.94;78.71;99796.07;130501;1267;107658;-76
2022/09/13 07:48:03;;;;;;;5.00;4.00;;;;;;;15.11;78.91;99796.16;130378;1267;107731;-77
2022/09/13 07:51:10;;;;;;;4.90;4.10;;;;;;;15.21;78.66;99796.90;130515;1267;108713;-76
2022/09/13 07:54:18;;;;;;;7.70;4.30;;;;;;;15.25;78.71;99791.48;130499;1267;108880;-77
2022/09/13 07:57:24;;;;;;;6.10;4.50;;;;;;;15.30;78.64;99794.54;130431;1267;108852;-76
2022/09/13 08:00:29;;;;;;;5.80;4.70;;;;;;;15.37;78.78;99792.89;130406;1268;108959;-76
2022/09/13 08:03:36;;;;;;;6.00;4.00;;;;;;;15.41;78.48;99792.59;130427;1268;108710;-77
2022/09/13 08:06:42;;;;;;;5.80;4.10;;;;;;;15.45;78.45;99794.31;130456;1268;108622;-76
2022/09/13 08:09:47;;;;;;;5.00;4.50;;;;;;;15.57;78.71;99799.65;130429;1268;108818;-75
2022/09/13 08:12:53;;;;;;;8.40;4.40;;;;;;;15.72;78.58;99794.11;130394;1268;109020;-75
2022/09/13 08:16:00;;;;;;;7.60;4.90;;;;;;;15.89;78.39;99793.57;130489;1268;108694;-75
2022/09/13 08:19:08;;;;;;;6.40;5.30;;;;;;;16.05;78.37;99794.31;130535;1268;108750;-76
2022/09/13 08:22:13;;;;;;;7.70;5.20;;;;;;;16.18;78.01;99788.20;130615;1267;106897;-75
2022/09/13 08:25:18;;;;;;;5.40;4.80;;;;;;;16.26;78.26;99785.61;130383;1268;108989;-75
2022/09/13 08:28:24;;;;;;;5.80;5.20;;;;;;;16.39;78.26;99779.86;130451;1265;108699;-74
2022/09/13 08:31:30;;;;;;;7.70;5.10;;;;;;;16.54;78.15;99778.27;130531;1267;108515;-77
2022/09/13 08:34:35;;;;;;;5.60;5.00;;;;;;;16.71;77.98;99778.42;130567;1267;108674;-76
2022/09/13 08:37:41;;;;;;;6.40;5.70;;;;;;;16.87;77.79;99780.89;130531;1268;108663;-77
2022/09/13 08:40:50;;;;;;;6.70;5.40;;;;;;;16.98;77.66;99774.16;130514;1268;108850;-76
2022/09/13 08:44:03;;;;;;;5.60;5.00;;;;;;;17.14;77.57;99770.95;130576;1268;108889;-77
2022/09/13 08:47:26;;;;;;;6.60;4.90;;;;;;;17.29;77.59;99767.26;130509;1268;108864;-79
2022/09/13 08:50:36;;;;;;;6.40;5.30;;;;;;;17.43;77.34;99763.84;130553;1267;108729;-77
2022/09/13 08:53:47;;;;;;;5.80;4.70;;;;;;;17.50;76.97;99759.79;130449;1267;108963;-77
2022/09/13 08:57:01;;;;;;;6.30;5.20;;;;;;;17.59;77.06;99756.41;130397;1267;108824;-77
2022/09/13 09:00:17;;;;;;;6.60;5.40;;;;;;;17.66;77.13;99754.27;130535;1267;108631;-77
2022/09/13 09:03:32;;;;;;;5.70;5.10;;;;;;;17.76;76.96;99750.23;130421;1268;108614;-77
2022/09/13 09:06:38;;;;;;;6.40;5.30;;;;;;;17.86;76.82;99747.61;130442;1268;108757;-77
2022/09/13 09:09:50;;;;;;;8.10;5.60;;;;;;;17.99;76.45;99741.88;130457;1267;108803;-77
2022/09/13 09:12:59;;;;;;;6.00;4.90;;;;;;;18.19;76.28;99732.45;130517;1268;108799;-77
2022/09/13 09:16:13;;;;;;;6.10;5.10;;;;;;;18.37;76.18;99733.65;130337;1268;107471;-77
2022/09/13 09:19:23;;;;;;;5.80;4.80;;;;;;;18.56;76.01;99728.64;130423;1268;108583;-77
2022/09/13 09:22:33;;;;;;;6.50;4.40;;;;;;;18.75;76.10;99728.46;130479;1268;108617;-77
2022/09/13 09:25:39;;;;;;;6.20;5.00;;;;;;;18.95;75.75;99726.48;130579;1267;108805;-77
2022/09/13 09:28:46;;;;;;;4.30;3.90;;;;;;;19.05;75.12;99721.73;130532;1268;108804;-77
2022/09/13 09:32:08;;;;;;;4.20;3.80;;;;;;;19.17;75.07;99716.73;130425;1267;108690;-77
2022/09/13 09:35:24;;;;;;;5.40;4.40;;;;;;;19.34;74.80;99714.08;130325;1269;108672;-76
2022/09/13 09:38:36;;;;;;;5.60;5.00;;;;;;;19.41;73.01;99706.60;130403;1267;108787;-76
2022/09/13 09:41:42;;;;;;;6.00;4.30;;;;;;;19.40;73.17;99704.09;130331;1268;108766;-76
2022/09/13 09:44:52;;;;;;;4.60;3.90;;;;;;;19.53;73.99;99702.13;130407;1268;108883;-76
2022/09/13 09:48:00;;;;;;;5.00;4.40;;;;;;;19.59;73.22;99700.14;130561;1268;108780;-76
2022/09/13 09:51:09;;;;;;;5.90;4.40;;;;;;;19.60;73.09;99697.79;130474;1268;108672;-76
2022/09/13 09:54:14;;;;;;;4.60;4.00;;;;;;;19.64;73.09;99697.47;130458;1268;108810;-77
2022/09/13 09:57:20;;;;;;;4.00;3.60;;;;;;;19.67;72.75;99695.80;130504;1268;108929;-77
2022/09/13 10:00:28;;;;;;;4.50;3.20;;;;;;;19.71;72.76;99690.73;130389;1268;108879;-77
2022/09/13 10:03:35;;;;;;;3.30;3.00;;;;;;;19.75;72.38;99687.16;130457;1268;109716;-78
2022/09/13 10:06:42;;;;;;;3.00;2.70;;;;;;;19.80;72.51;99691.67;130413;1267;108674;-75
2022/09/13 10:10:00;;;;;;;4.00;2.50;;;;;;;19.84;71.50;99688.38;130396;1268;108678;-76
2022/09/13 10:13:08;;;;;;;2.70;2.50;;;;;;;19.75;71.28;99684.38;130492;1268;108778;-77
2022/09/13 10:16:26;;;;;;;3.00;2.40;;;;;;;19.70;71.21;99682.45;130520;1267;108269;-77
2022/09/13 10:19:31;;;;;;;3.10;2.60;;;;;;;19.68;71.37;99678.10;130474;1268;107674;-77
2022/09/13 10:22:37;;;;;;;2.50;2.30;;;;;;;19.68;70.85;99676.52;130480;1268;108660;-78
2022/09/13 10:25:44;;;;;;;3.90;2.80;;;;;;;19.69;70.71;99677.83;130461;1268;109730;-78
2022/09/13 10:28:56;;;;;;;2.60;2.40;;;;;;;19.67;70.14;99675.66;130477;1268;108894;-78
2022/09/13 10:32:11;;;;;;;3.20;2.90;;;;;;;19.70;70.19;99672.90;130406;1268;108690;-77
2022/09/13 10:35:19;;;;;;;2.70;2.50;;;;;;;19.73;70.11;99668.70;130427;1268;108844;-77
2022/09/13 10:38:29;;;;;;;3.50;2.80;;;;;;;19.79;69.97;99665.29;130383;1268;109128;-78
2022/09/13 10:41:37;;;;;;;3.80;3.30;;;;;;;19.85;70.03;99662.04;130435;1268;108948;-77
2022/09/13 10:44:46;;;;;;;4.20;3.50;;;;;;;19.95;70.08;99659.13;130344;1268;108678;-76
2022/09/13 10:47:55;;;;;;;3.70;3.10;;;;;;;20.06;70.00;99657.89;130418;1268;108713;-77
2022/09/13 10:51:07;;;;;;;4.30;2.60;;;;;;;20.17;69.85;99655.90;130341;1268;108813;-77
2022/09/13 10:54:22;;;;;;;4.10;2.50;;;;;;;20.28;69.43;99651.52;130421;1268;108684;-77
2022/09/13 10:57:34;;;;;;;4.00;2.60;;;;;;;20.30;69.01;99654.52;130398;1268;109224;-78
2022/09/13 11:00:41;;;;;;;;;;;;;;;20.31;69.05;99656.48;130455;1268;108870;-77
2022/09/13 11:04:03;;;;;;;4.50;2.60;;;;;;;20.34;68.95;99651.77;130463;1268;108725;-77
2022/09/13 11:07:28;;;;;;;2.60;2.30;;;;;;;20.41;69.02;99641.40;130393;1267;108808;-77
2022/09/13 11:10:45;;;;;;;3.00;2.40;;;;;;;20.49;68.75;99633.09;130447;1268;108719;-77
2022/09/13 11:14:10;;;;;;;3.00;2.70;;;;;;;20.55;68.37;99628.29;130448;1267;108819;-77
2022/09/13 11:17:31;;;;;;;2.90;2.40;;;;;;;20.59;67.87;99622.41;130315;1269;108653;-77
2022/09/13 11:20:44;;;;;;;2.90;2.40;;;;;;;20.62;67.60;99619.95;130359;1268;108722;-77
2022/09/13 11:24:21;;;;;;;2.80;2.40;;;;;;;20.65;67.63;99619.24;130422;1268;108720;-77
2022/09/13 11:27:39;;;;;;;3.10;2.60;;;;;;;20.64;66.90;99609.15;130484;1268;108608;-77
2022/09/13 11:31:18;;;;;;;2.30;2.10;;;;;;;20.68;67.14;99606.46;130568;1268;108797;-77
2022/09/13 11:34:38;;;;;;;2.30;2.10;;;;;;;20.74;67.14;99607.22;130368;1268;108831;-77
2022/09/13 11:37:53;;;;;;;2.90;2.50;;;;;;;20.84;66.89;99606.84;130409;1268;108660;-78
2022/09/13 11:41:08;;;;;;;2.80;2.30;;;;;;;20.93;66.51;99598.91;130401;1268;107365;-78
2022/09/13 11:44:39;;;;;;;3.00;2.70;;;;;;;21.01;66.23;99591.16;130396;1268;108698;-77
2022/09/13 11:47:57;;;;;;;2.50;2.10;;;;;;;21.03;66.06;99585.30;130390;1268;108589;-77
2022/09/13 11:51:11;;;;;;;3.10;2.60;;;;;;;21.01;66.00;99576.40;130407;1267;108940;-77
2022/09/13 11:54:30;;;;;;;2.70;2.30;;;;;;;20.94;65.77;99569.58;130323;1268;108741;-77
2022/09/13 11:57:40;;;;;;;2.70;2.20;;;;;;;20.86;65.93;99564.26;130400;1268;107171;-77
2022/09/13 12:00:52;;;;;;;2.90;2.60;;;;;;;20.79;65.63;99559.70;130449;1268;108817;-77
2022/09/13 12:03:58;;;;;;;;;;;;;;;20.70;65.43;99557.28;130479;1268;108509;-77
2022/09/13 12:07:10;;;;;;;2.50;2.30;;;;;;;20.63;65.59;99552.13;130423;1268;108700;-77
2022/09/13 12:10:27;;;;;;;3.40;2.50;;;;;;;20.60;65.48;99546.55;130353;1268;108651;-77
2022/09/13 12:13:40;;;;;;;2.60;2.40;;;;;;;20.58;65.29;99545.71;130419;1268;108755;-77
2022/09/13 12:16:49;;;;;;;7.20;3.10;;;;;;;20.58;65.39;99536.84;130353;1268;108849;-78
2022/09/13 12:19:59;;;;;;;2.70;2.30;;;;;;;20.63;65.13;99535.45;130403;1268;108801;-77
2022/09/13 12:23:11;;;;;;;2.50;2.30;;;;;;;20.70;65.07;99538.65;130309;1268;108820;-76
2022/09/13 12:26:21;;;;;;;2.80;2.40;;;;;;;20.82;65.02;99531.13;130228;1267;108994;-76
2022/09/13 12:29:35;;;;;;;2.90;2.60;;;;;;;20.88;64.87;99515.16;130376;1268;108813;-76
2022/09/13 12:32:43;;;;;;;2.60;2.40;;;;;;;20.89;64.76;99502.88;130490;1268;108643;-76
2022/09/13 12:36:08;;;;;;;3.80;2.60;;;;;;;20.79;64.54;99479.09;130384;1268;108743;-77
2022/09/13 12:39:36;;;;;;;2.90;2.50;;;;;;;20.70;64.23;99478.09;130403;1267;108750;-76
2022/09/13 12:42:58;;;;;;;3.00;2.50;;;;;;;20.73;64.61;99486.44;130386;1268;108563;-78
2022/09/13 12:46:25;;;;;;;3.00;2.50;;;;;;;20.83;64.34;99483.27;130474;1268;108492;-78
2022/09/13 12:49:43;;;;;;;2.80;2.50;;;;;;;20.87;64.17;99482.44;130374;1268;108904;-75
2022/09/13 12:53:01;;;;;;;3.30;2.60;;;;;;;20.86;63.92;99489.95;130399;1268;109627;-77
2022/09/13 12:56:24;;;;;;;3.60;2.80;;;;;;;20.83;63.79;99488.43;130394;1268;107697;-76
2022/09/13 12:59:54;;;;;;;3.60;2.50;;;;;;;20.88;63.76;99485.58;129313;1268;1477864;-75
2022/09/13 13:03:11;;;;;;;3.00;2.70;;;;;;;20.93;63.79;99478.84;130414;1268;108966;-78
2022/09/13 13:06:31;;;;;;;3.00;2.50;;;;;;;20.95;63.38;99473.92;130439;1268;107735;-78
2022/09/13 13:09:41;;;;;;;3.80;3.50;;;;;;;20.92;63.59;99475.55;130414;1267;108710;-78
2022/09/13 13:12:47;;;;;;;3.80;3.10;;;;;;;20.83;63.34;99478.18;130377;1268;111505;-78
2022/09/13 13:16:06;;;;;;;3.60;3.00;;;;;;;20.71;63.70;99478.31;130395;1268;108820;-77
2022/09/13 13:19:31;;;;;;;4.90;3.00;;;;;;;20.59;63.58;99475.91;130328;1268;108946;-78
2022/09/13 13:22:53;;;;;;;4.70;3.10;;;;;;;20.49;63.63;99477.86;130390;1268;108750;-78
2022/09/13 13:26:06;;;;;;;3.00;2.70;;;;;;;20.41;63.63;99480.61;130426;1268;108727;-78
2022/09/13 13:29:17;;;;;;;2.90;2.70;;;;;;;20.31;63.80;99483.96;130413;1268;108845;-77
2022/09/13 13:32:24;;;;;;;4.70;3.00;;;;;;;20.18;63.98;99479.82;130504;1268;108352;-77
2022/09/13 13:35:32;;;;;;;3.90;3.00;;;;;;;20.06;63.76;99478.45;130286;1268;108845;-78
2022/09/13 13:38:47;;;;;;;4.20;3.80;;;;;;;19.94;63.94;99476.34;130418;1268;107444;-79
2022/09/13 13:41:56;;;;;;;6.10;3.10;;;;;;;19.84;63.98;99476.67;130406;1268;108778;-77
2022/09/13 13:45:19;;;;;;;3.50;3.20;;;;;;;19.71;64.03;99466.91;130458;1268;108191;-78
2022/09/13 13:48:38;;;;;;;4.10;3.70;;;;;;;19.61;64.36;99458.75;130423;1268;108759;-76
2022/09/13 13:51:44;;;;;;;6.00;4.70;;;;;;;19.52;64.52;99454.85;130417;1268;108825;-77
2022/09/13 13:55:05;;;;;;;5.30;4.80;;;;;;;19.47;64.67;99450.82;130389;1268;108732;-76
2022/09/13 13:58:27;;;;;;;5.20;4.20;;;;;;;19.41;64.87;99447.63;130461;1268;108925;-76
2022/09/13 14:01:36;;;;;;;8.10;4.80;;;;;;;19.35;64.76;99439.75;130425;1268;108824;-76
2022/09/13 14:05:00;;;;;;;5.00;4.50;;;;;;;19.31;64.86;99435.14;130308;1268;108736;-76
2022/09/13 14:08:38;;;;;;;4.80;4.30;;;;;;;19.30;64.98;99433.75;130439;1268;108741;-77
2022/09/13 14:11:57;;;;;;;5.50;4.80;;;;;;;19.29;65.03;99429.77;130033;1269;108775;-78
2022/09/13 14:15:22;;;;;;;4.90;4.40;;;;;;;19.28;65.00;99430.13;130377;1268;108977;-78
2022/09/13 14:18:45;;;;;;;5.00;4.40;;;;;;;19.29;65.00;99432.22;130374;1268;107719;-77
2022/09/13 14:22:07;;;;;;;5.30;4.00;;;;;;;19.30;65.12;99429.21;130325;1267;108863;-77
2022/09/13 14:25:23;;;;;;;7.30;4.50;;;;;;;19.29;65.12;99429.40;130413;1268;108760;-77
2022/09/13 14:28:28;;;;;;;4.70;4.00;;;;;;;19.27;65.27;99425.02;130345;1268;109649;-77
2022/09/13 14:31:34;;;;;;;5.00;3.90;;;;;;;19.26;65.37;99420.17;130478;1267;108672;-77
2022/09/13 14:34:50;;;;;;;5.40;4.70;;;;;;;19.21;65.63;99414.05;130377;1268;109231;-77
2022/09/13 14:37:56;;;;;;;6.50;4.90;;;;;;;19.13;65.53;99409.03;130363;1268;109019;-77
2022/09/13 14:41:11;;;;;;;5.00;4.50;;;;;;;19.03;65.52;99407.38;130405;1268;108669;-77